Lucky Thirteen — WDD8654 — position and weather

sailwx.info

Track history (hours):
 
Tides and Currents Weather Stations Pressure Air Temp Water Temp Dewpoint Dewpoint Depression Visibility Wind Speed Wind Dir Waves Ship Positions

Lucky Thirteen

Owner: Kristine L Inc., Barnegat Light, NJ. More information available from US FCC via Universal Licensing System and Coast Guard Vessel Documentation Center.

Last reported at 2016-Jul-01 13:32 UTC. Time now 2016-Jul-01 13:42 UTC.
Position N 39°45' W 074°07'.

Length 23 m.

Type: Fishing. MMSI: 367300990.

Date/timePositionNaut miles runAvg speedWind from/ knotsBaromVisibWave heightAir tempDewpointWater temp
2016-Jul-01 13:32N 39°45' W 074°07'0 0.0
2016-Jul-01 12:32N 39°45' W 074°07'0 0.0
2016-Jul-01 11:32N 39°45' W 074°07'0 0.0
2016-Jul-01 10:32N 39°45' W 074°07'0 0.0
2016-Jul-01 09:26N 39°45' W 074°07'0 0.0
2016-Jul-01 08:32N 39°45' W 074°07'0 0.0
2016-Jul-01 07:20N 39°45' W 074°07'0 0.0
2016-Jul-01 04:29N 39°45' W 074°07'0 0.0
2016-Jul-01 03:11N 39°45' W 074°07'0 0.0
2016-Jul-01 02:32N 39°45' W 074°07'0 0.0
2016-Jul-01 01:26N 39°45' W 074°07'0 0.0
2016-Jul-01 00:20N 39°45' W 074°07'0 0.0
2016-Jun-30 23:20N 39°45' W 074°07'0 0.0
2016-Jun-30 22:32N 39°45' W 074°07'1 1.1
2016-Jun-30 21:33N 39°46' W 074°06'  
2016-Jun-28 09:04N 39°37' W 073°55'4 8.4
2016-Jun-28 08:32N 39°40' W 073°59'8 7.9
2016-Jun-28 07:33N 39°46' W 074°06'14 0.7
2016-Jun-27 11:17N 39°36' W 073°53'7 8.7
2016-Jun-27 10:28N 39°42' W 073°58'7 7.8
2016-Jun-27 09:31N 39°46' W 074°06'  
2016-Jun-22 11:26N 39°40' W 073°59'8 3.8
2016-Jun-22 09:21N 39°45' W 074°07'0 0.0
2016-Jun-22 08:33N 39°45' W 074°07'0 0.0
2016-Jun-22 06:33N 39°45' W 074°07'0 0.0
2016-Jun-22 05:33N 39°45' W 074°07'0 0.0
2016-Jun-22 04:33N 39°45' W 074°07'0 0.0
2016-Jun-22 03:33N 39°45' W 074°07'0 0.0
2016-Jun-22 00:30N 39°45' W 074°07'0 0.0
2016-Jun-21 23:30N 39°45' W 074°07'0 0.0
2016-Jun-21 22:24N 39°45' W 074°07'0 0.0
2016-Jun-21 21:30N 39°45' W 074°07'0 0.0
2016-Jun-21 20:30N 39°45' W 074°07'0 0.0
2016-Jun-21 19:18N 39°45' W 074°07'0 0.0
2016-Jun-21 18:24N 39°45' W 074°07'0 0.0
2016-Jun-21 17:24N 39°45' W 074°07'0 0.0
2016-Jun-21 16:24N 39°45' W 074°07'0 0.0
2016-Jun-21 15:30N 39°45' W 074°07'0 0.0
2016-Jun-21 14:30N 39°45' W 074°07'  
Track history (hours):
 
Tides and Currents Weather Stations Pressure Air Temp Water Temp Dewpoint Dewpoint Depression Visibility Wind Speed Wind Dir Waves Ship Positions

Lucky Thirteen

Owner: Kristine L Inc., Barnegat Light, NJ. More information available from US FCC via Universal Licensing System and Coast Guard Vessel Documentation Center.

Last reported at 2016-Jul-01 13:32 UTC. Time now 2016-Jul-01 13:42 UTC.
Position N 39°45' W 074°07'.

Length 23 m.

Type: Fishing. MMSI: 367300990.

Date/timePositionNaut miles runAvg speedWind from/ knotsBaromVisibWave heightAir tempDewpointWater temp
2016-Jul-01 13:32N 39°45' W 074°07'0 0.0
2016-Jul-01 12:32N 39°45' W 074°07'0 0.0
2016-Jul-01 11:32N 39°45' W 074°07'0 0.0
2016-Jul-01 10:32N 39°45' W 074°07'0 0.0
2016-Jul-01 09:26N 39°45' W 074°07'0 0.0
2016-Jul-01 08:32N 39°45' W 074°07'0 0.0
2016-Jul-01 07:20N 39°45' W 074°07'0 0.0
2016-Jul-01 04:29N 39°45' W 074°07'0 0.0
2016-Jul-01 03:11N 39°45' W 074°07'0 0.0
2016-Jul-01 02:32N 39°45' W 074°07'0 0.0
2016-Jul-01 01:26N 39°45' W 074°07'0 0.0
2016-Jul-01 00:20N 39°45' W 074°07'0 0.0
2016-Jun-30 23:20N 39°45' W 074°07'0 0.0
2016-Jun-30 22:32N 39°45' W 074°07'1 1.1
2016-Jun-30 21:33N 39°46' W 074°06'  
2016-Jun-28 09:04N 39°37' W 073°55'4 8.4
2016-Jun-28 08:32N 39°40' W 073°59'8 7.9
2016-Jun-28 07:33N 39°46' W 074°06'14 0.7
2016-Jun-27 11:17N 39°36' W 073°53'7 8.7
2016-Jun-27 10:28N 39°42' W 073°58'7 7.8
2016-Jun-27 09:31N 39°46' W 074°06'  
2016-Jun-22 11:26N 39°40' W 073°59'8 3.8
2016-Jun-22 09:21N 39°45' W 074°07'0 0.0
2016-Jun-22 08:33N 39°45' W 074°07'0 0.0
2016-Jun-22 06:33N 39°45' W 074°07'0 0.0
2016-Jun-22 05:33N 39°45' W 074°07'0 0.0
2016-Jun-22 04:33N 39°45' W 074°07'0 0.0
2016-Jun-22 03:33N 39°45' W 074°07'0 0.0
2016-Jun-22 00:30N 39°45' W 074°07'0 0.0
2016-Jun-21 23:30N 39°45' W 074°07'0 0.0
2016-Jun-21 22:24N 39°45' W 074°07'0 0.0
2016-Jun-21 21:30N 39°45' W 074°07'0 0.0
2016-Jun-21 20:30N 39°45' W 074°07'0 0.0
2016-Jun-21 19:18N 39°45' W 074°07'0 0.0
2016-Jun-21 18:24N 39°45' W 074°07'0 0.0
2016-Jun-21 17:24N 39°45' W 074°07'0 0.0
2016-Jun-21 16:24N 39°45' W 074°07'0 0.0
2016-Jun-21 15:30N 39°45' W 074°07'0 0.0
2016-Jun-21 14:30N 39°45' W 074°07'  

Dump ship's entire track history